sensor_id;sensor_type;location;lat;lon;timestamp;temperature;humidity
74540;SHT31;66042;51.090;-115.340;2023-05-10T00:01:12;25.99;30.56
74540;SHT31;66042;51.090;-115.340;2023-05-10T00:03:39;25.47;31.60
74540;SHT31;66042;51.090;-115.340;2023-05-10T00:06:06;25.08;32.03
74540;SHT31;66042;51.090;-115.340;2023-05-10T00:08:33;24.55;31.04
74540;SHT31;66042;51.090;-115.340;2023-05-10T00:11:00;24.01;31.68
74540;SHT31;66042;51.090;-115.340;2023-05-10T00:13:27;23.58;32.60
74540;SHT31;66042;51.090;-115.340;2023-05-10T00:15:54;23.21;32.65
74540;SHT31;66042;51.090;-115.340;2023-05-10T00:18:21;22.84;33.06
74540;SHT31;66042;51.090;-115.340;2023-05-10T00:20:48;22.52;33.22
74540;SHT31;66042;51.090;-115.340;2023-05-10T00:23:15;22.08;34.24
74540;SHT31;66042;51.090;-115.340;2023-05-10T00:25:42;21.73;34.63
74540;SHT31;66042;51.090;-115.340;2023-05-10T00:28:09;21.45;35.05
74540;SHT31;66042;51.090;-115.340;2023-05-10T00:30:36;21.17;35.47
74540;SHT31;66042;51.090;-115.340;2023-05-10T00:33:03;20.92;35.35
74540;SHT31;66042;51.090;-115.340;2023-05-10T00:35:30;20.77;35.38
74540;SHT31;66042;51.090;-115.340;2023-05-10T00:37:57;20.55;35.90
74540;SHT31;66042;51.090;-115.340;2023-05-10T00:40:24;20.10;36.82
74540;SHT31;66042;51.090;-115.340;2023-05-10T00:42:51;19.80;37.42
74540;SHT31;66042;51.090;-115.340;2023-05-10T00:45:18;19.48;37.18
74540;SHT31;66042;51.090;-115.340;2023-05-10T00:47:45;19.32;38.20
74540;SHT31;66042;51.090;-115.340;2023-05-10T00:50:13;19.24;38.41
74540;SHT31;66042;51.090;-115.340;2023-05-10T00:52:41;19.17;38.72
74540;SHT31;66042;51.090;-115.340;2023-05-10T00:55:09;19.11;38.78
74540;SHT31;66042;51.090;-115.340;2023-05-10T00:57:38;19.05;39.16
74540;SHT31;66042;51.090;-115.340;2023-05-10T01:00:05;19.03;39.47
74540;SHT31;66042;51.090;-115.340;2023-05-10T01:02:33;19.09;39.22
74540;SHT31;66042;51.090;-115.340;2023-05-10T01:05:01;19.07;39.07
74540;SHT31;66042;51.090;-115.340;2023-05-10T01:07:29;19.02;39.04
74540;SHT31;66042;51.090;-115.340;2023-05-10T01:09:56;19.00;39.18
74540;SHT31;66042;51.090;-115.340;2023-05-10T01:12:24;18.94;39.55
74540;SHT31;66042;51.090;-115.340;2023-05-10T01:14:51;18.83;39.50
74540;SHT31;66042;51.090;-115.340;2023-05-10T01:17:20;18.58;39.73
74540;SHT31;66042;51.090;-115.340;2023-05-10T01:19:48;18.36;40.23
74540;SHT31;66042;51.090;-115.340;2023-05-10T01:36:55;16.89;42.92
74540;SHT31;66042;51.090;-115.340;2023-05-10T01:39:55;16.72;43.50
74540;SHT31;66042;51.090;-115.340;2023-05-10T01:42:39;16.58;44.08
74540;SHT31;66042;51.090;-115.340;2023-05-10T01:45:28;16.38;45.47
74540;SHT31;66042;51.090;-115.340;2023-05-10T01:48:29;16.19;47.10
74540;SHT31;66042;51.090;-115.340;2023-05-10T01:50:57;16.03;48.43
74540;SHT31;66042;51.090;-115.340;2023-05-10T01:53:25;15.87;49.12
74540;SHT31;66042;51.090;-115.340;2023-05-10T01:55:54;15.69;49.79
74540;SHT31;66042;51.090;-115.340;2023-05-10T01:58:28;15.55;50.11
74540;SHT31;66042;51.090;-115.340;2023-05-10T02:00:59;15.42;50.21
74540;SHT31;66042;51.090;-115.340;2023-05-10T02:03:29;15.28;50.61
74540;SHT31;66042;51.090;-115.340;2023-05-10T02:06:01;15.15;51.23
74540;SHT31;66042;51.090;-115.340;2023-05-10T02:08:29;15.00;51.76
74540;SHT31;66042;51.090;-115.340;2023-05-10T02:10:58;14.84;52.15
74540;SHT31;66042;51.090;-115.340;2023-05-10T02:13:27;14.71;52.69
74540;SHT31;66042;51.090;-115.340;2023-05-10T02:15:58;14.61;53.36
74540;SHT31;66042;51.090;-115.340;2023-05-10T02:18:27;14.49;53.96
74540;SHT31;66042;51.090;-115.340;2023-05-10T02:20:55;14.36;54.52
74540;SHT31;66042;51.090;-115.340;2023-05-10T02:23:24;14.25;54.91
74540;SHT31;66042;51.090;-115.340;2023-05-10T02:25:53;14.15;55.73
74540;SHT31;66042;51.090;-115.340;2023-05-10T02:28:23;13.99;55.77
74540;SHT31;66042;51.090;-115.340;2023-05-10T02:30:52;13.76;56.23
74540;SHT31;66042;51.090;-115.340;2023-05-10T02:33:20;13.63;56.86
74540;SHT31;66042;51.090;-115.340;2023-05-10T02:35:49;13.46;56.64
74540;SHT31;66042;51.090;-115.340;2023-05-10T02:38:18;13.35;57.45
74540;SHT31;66042;51.090;-115.340;2023-05-10T02:40:48;13.26;57.97
74540;SHT31;66042;51.090;-115.340;2023-05-10T02:43:16;13.09;58.66
74540;SHT31;66042;51.090;-115.340;2023-05-10T02:45:46;12.97;59.18
74540;SHT31;66042;51.090;-115.340;2023-05-10T02:48:14;12.90;59.52
74540;SHT31;66042;51.090;-115.340;2023-05-10T02:50:43;12.84;59.81
74540;SHT31;66042;51.090;-115.340;2023-05-10T02:53:18;12.78;59.99
74540;SHT31;66042;51.090;-115.340;2023-05-10T02:55:57;12.68;59.83
74540;SHT31;66042;51.090;-115.340;2023-05-10T02:58:32;12.60;60.03
74540;SHT31;66042;51.090;-115.340;2023-05-10T03:01:01;12.50;60.99
74540;SHT31;66042;51.090;-115.340;2023-05-10T03:03:28;12.46;61.52
74540;SHT31;66042;51.090;-115.340;2023-05-10T03:05:55;12.44;61.71
74540;SHT31;66042;51.090;-115.340;2023-05-10T03:08:23;12.43;61.81
74540;SHT31;66042;51.090;-115.340;2023-05-10T03:11:37;12.42;61.92
74540;SHT31;66042;51.090;-115.340;2023-05-10T03:17:22;12.34;61.89
74540;SHT31;66042;51.090;-115.340;2023-05-10T03:19:58;12.26;62.03
74540;SHT31;66042;51.090;-115.340;2023-05-10T03:22:45;12.20;62.20
74540;SHT31;66042;51.090;-115.340;2023-05-10T03:25:19;12.14;62.60
74540;SHT31;66042;51.090;-115.340;2023-05-10T03:27:48;12.06;62.80
74540;SHT31;66042;51.090;-115.340;2023-05-10T03:30:17;12.04;62.99
74540;SHT31;66042;51.090;-115.340;2023-05-10T03:32:45;11.98;63.29
74540;SHT31;66042;51.090;-115.340;2023-05-10T03:35:12;11.92;63.37
74540;SHT31;66042;51.090;-115.340;2023-05-10T03:37:39;11.85;63.81
74540;SHT31;66042;51.090;-115.340;2023-05-10T03:40:06;11.81;63.93
74540;SHT31;66042;51.090;-115.340;2023-05-10T03:42:35;11.77;64.06
74540;SHT31;66042;51.090;-115.340;2023-05-10T03:45:02;11.74;64.31
74540;SHT31;66042;51.090;-115.340;2023-05-10T03:47:32;11.74;64.59
74540;SHT31;66042;51.090;-115.340;2023-05-10T03:49:59;11.75;64.77
74540;SHT31;66042;51.090;-115.340;2023-05-10T03:52:25;11.79;64.80
74540;SHT31;66042;51.090;-115.340;2023-05-10T03:54:52;11.78;64.98
74540;SHT31;66042;51.090;-115.340;2023-05-10T03:57:19;11.70;65.21
74540;SHT31;66042;51.090;-115.340;2023-05-10T03:59:45;11.71;65.25
74540;SHT31;66042;51.090;-115.340;2023-05-10T04:02:12;11.72;65.23
74540;SHT31;66042;51.090;-115.340;2023-05-10T04:04:38;11.73;65.39
74540;SHT31;66042;51.090;-115.340;2023-05-10T04:07:05;11.71;65.44
74540;SHT31;66042;51.090;-115.340;2023-05-10T04:09:32;11.70;65.50
74540;SHT31;66042;51.090;-115.340;2023-05-10T04:11:58;11.69;65.62
74540;SHT31;66042;51.090;-115.340;2023-05-10T04:14:27;11.65;65.78
74540;SHT31;66042;51.090;-115.340;2023-05-10T04:16:54;11.57;65.63
74540;SHT31;66042;51.090;-115.340;2023-05-10T04:19:21;11.54;65.67
74540;SHT31;66042;51.090;-115.340;2023-05-10T04:21:48;11.52;65.69
74540;SHT31;66042;51.090;-115.340;2023-05-10T04:24:15;11.51;65.83
74540;SHT31;66042;51.090;-115.340;2023-05-10T04:26:42;11.52;65.84
74540;SHT31;66042;51.090;-115.340;2023-05-10T04:29:08;11.51;65.69
74540;SHT31;66042;51.090;-115.340;2023-05-10T04:31:35;11.43;64.71
74540;SHT31;66042;51.090;-115.340;2023-05-10T04:34:05;11.40;64.00
74540;SHT31;66042;51.090;-115.340;2023-05-10T04:36:32;11.39;63.95
74540;SHT31;66042;51.090;-115.340;2023-05-10T04:39:02;11.40;64.20
74540;SHT31;66042;51.090;-115.340;2023-05-10T04:41:30;11.34;64.23
74540;SHT31;66042;51.090;-115.340;2023-05-10T04:43:57;11.30;64.43
74540;SHT31;66042;51.090;-115.340;2023-05-10T04:46:24;11.27;64.63
74540;SHT31;66042;51.090;-115.340;2023-05-10T04:48:51;11.21;64.64
74540;SHT31;66042;51.090;-115.340;2023-05-10T04:51:17;11.15;64.86
74540;SHT31;66042;51.090;-115.340;2023-05-10T04:53:44;11.06;65.05
74540;SHT31;66042;51.090;-115.340;2023-05-10T04:56:11;10.99;65.10
74540;SHT31;66042;51.090;-115.340;2023-05-10T04:58:40;10.97;65.22
74540;SHT31;66042;51.090;-115.340;2023-05-10T05:01:07;10.96;65.41
74540;SHT31;66042;51.090;-115.340;2023-05-10T05:03:36;10.92;65.49
74540;SHT31;66042;51.090;-115.340;2023-05-10T05:06:03;10.85;65.67
74540;SHT31;66042;51.090;-115.340;2023-05-10T05:08:30;10.79;65.51
74540;SHT31;66042;51.090;-115.340;2023-05-10T05:10:57;10.77;65.70
74540;SHT31;66042;51.090;-115.340;2023-05-10T05:13:24;10.70;65.72
74540;SHT31;66042;51.090;-115.340;2023-05-10T05:15:51;10.68;65.87
74540;SHT31;66042;51.090;-115.340;2023-05-10T05:18:19;10.64;65.99
74540;SHT31;66042;51.090;-115.340;2023-05-10T05:20:49;10.60;66.24
74540;SHT31;66042;51.090;-115.340;2023-05-10T05:23:16;10.53;66.37
74540;SHT31;66042;51.090;-115.340;2023-05-10T05:25:44;10.45;66.55
74540;SHT31;66042;51.090;-115.340;2023-05-10T05:28:11;10.44;66.67
74540;SHT31;66042;51.090;-115.340;2023-05-10T05:30:38;10.42;66.85
74540;SHT31;66042;51.090;-115.340;2023-05-10T05:33:05;10.42;67.05
74540;SHT31;66042;51.090;-115.340;2023-05-10T05:35:31;10.40;67.22
74540;SHT31;66042;51.090;-115.340;2023-05-10T05:37:59;10.41;67.22
74540;SHT31;66042;51.090;-115.340;2023-05-10T05:40:27;10.41;67.22
74540;SHT31;66042;51.090;-115.340;2023-05-10T05:42:54;10.41;67.28
74540;SHT31;66042;51.090;-115.340;2023-05-10T05:45:21;10.39;67.38
74540;SHT31;66042;51.090;-115.340;2023-05-10T05:47:48;10.38;67.52
74540;SHT31;66042;51.090;-115.340;2023-05-10T05:50:15;10.36;67.51
74540;SHT31;66042;51.090;-115.340;2023-05-10T05:52:42;10.34;67.68
74540;SHT31;66042;51.090;-115.340;2023-05-10T05:55:08;10.30;67.71
74540;SHT31;66042;51.090;-115.340;2023-05-10T05:57:35;10.28;67.74
74540;SHT31;66042;51.090;-115.340;2023-05-10T06:00:02;10.25;67.85
74540;SHT31;66042;51.090;-115.340;2023-05-10T06:02:29;10.26;67.89
74540;SHT31;66042;51.090;-115.340;2023-05-10T06:04:57;10.28;67.92
74540;SHT31;66042;51.090;-115.340;2023-05-10T06:07:24;10.26;67.96
74540;SHT31;66042;51.090;-115.340;2023-05-10T06:09:51;10.25;68.06
74540;SHT31;66042;51.090;-115.340;2023-05-10T06:12:18;10.22;68.23
74540;SHT31;66042;51.090;-115.340;2023-05-10T06:14:45;10.20;68.33
74540;SHT31;66042;51.090;-115.340;2023-05-10T06:17:12;10.19;68.41
74540;SHT31;66042;51.090;-115.340;2023-05-10T06:19:39;10.19;68.44
74540;SHT31;66042;51.090;-115.340;2023-05-10T06:22:06;10.17;68.40
74540;SHT31;66042;51.090;-115.340;2023-05-10T06:24:32;10.13;68.43
74540;SHT31;66042;51.090;-115.340;2023-05-10T06:26:59;10.09;68.59
74540;SHT31;66042;51.090;-115.340;2023-05-10T06:29:26;10.10;68.74
74540;SHT31;66042;51.090;-115.340;2023-05-10T06:31:53;10.10;68.85
74540;SHT31;66042;51.090;-115.340;2023-05-10T06:34:20;10.10;68.96
74540;SHT31;66042;51.090;-115.340;2023-05-10T06:36:46;10.10;69.01
74540;SHT31;66042;51.090;-115.340;2023-05-10T06:39:14;10.10;69.10
74540;SHT31;66042;51.090;-115.340;2023-05-10T06:41:41;10.11;69.14
74540;SHT31;66042;51.090;-115.340;2023-05-10T06:44:08;10.11;69.27
74540;SHT31;66042;51.090;-115.340;2023-05-10T06:46:35;10.10;69.34
74540;SHT31;66042;51.090;-115.340;2023-05-10T06:49:02;10.10;69.30
74540;SHT31;66042;51.090;-115.340;2023-05-10T06:51:29;10.10;69.39
74540;SHT31;66042;51.090;-115.340;2023-05-10T06:53:58;10.08;69.54
74540;SHT31;66042;51.090;-115.340;2023-05-10T06:56:25;10.06;69.64
74540;SHT31;66042;51.090;-115.340;2023-05-10T06:58:52;10.04;69.70
74540;SHT31;66042;51.090;-115.340;2023-05-10T07:01:19;10.04;69.72
74540;SHT31;66042;51.090;-115.340;2023-05-10T07:03:46;10.03;69.74
74540;SHT31;66042;51.090;-115.340;2023-05-10T07:06:13;10.04;69.80
74540;SHT31;66042;51.090;-115.340;2023-05-10T07:08:39;10.05;69.85
74540;SHT31;66042;51.090;-115.340;2023-05-10T07:11:06;10.05;69.80
74540;SHT31;66042;51.090;-115.340;2023-05-10T07:13:34;10.07;69.81
74540;SHT31;66042;51.090;-115.340;2023-05-10T07:16:02;10.07;69.89
74540;SHT31;66042;51.090;-115.340;2023-05-10T07:18:29;10.07;69.85
74540;SHT31;66042;51.090;-115.340;2023-05-10T07:20:57;10.06;69.87
74540;SHT31;66042;51.090;-115.340;2023-05-10T07:23:24;10.06;69.80
74540;SHT31;66042;51.090;-115.340;2023-05-10T07:25:51;10.04;69.92
74540;SHT31;66042;51.090;-115.340;2023-05-10T07:28:18;10.02;69.89
74540;SHT31;66042;51.090;-115.340;2023-05-10T07:30:45;10.00;70.01
74540;SHT31;66042;51.090;-115.340;2023-05-10T07:33:14;10.00;70.00
74540;SHT31;66042;51.090;-115.340;2023-05-10T07:35:41;10.01;69.97
74540;SHT31;66042;51.090;-115.340;2023-05-10T07:38:09;10.02;69.98
74540;SHT31;66042;51.090;-115.340;2023-05-10T07:40:39;10.05;70.05
74540;SHT31;66042;51.090;-115.340;2023-05-10T07:43:06;10.08;70.00
74540;SHT31;66042;51.090;-115.340;2023-05-10T07:45:33;10.06;69.85
74540;SHT31;66042;51.090;-115.340;2023-05-10T07:48:00;10.01;69.99
74540;SHT31;66042;51.090;-115.340;2023-05-10T07:50:27;9.99;70.13
74540;SHT31;66042;51.090;-115.340;2023-05-10T07:52:53;9.99;70.16
74540;SHT31;66042;51.090;-115.340;2023-05-10T07:55:20;9.97;70.03
74540;SHT31;66042;51.090;-115.340;2023-05-10T07:57:47;9.96;70.05
74540;SHT31;66042;51.090;-115.340;2023-05-10T08:00:16;9.95;69.92
74540;SHT31;66042;51.090;-115.340;2023-05-10T08:02:46;9.96;69.92
74540;SHT31;66042;51.090;-115.340;2023-05-10T08:05:14;9.96;69.94
74540;SHT31;66042;51.090;-115.340;2023-05-10T08:07:40;9.94;69.87
74540;SHT31;66042;51.090;-115.340;2023-05-10T08:10:07;9.91;69.82
74540;SHT31;66042;51.090;-115.340;2023-05-10T08:12:36;9.89;69.88
74540;SHT31;66042;51.090;-115.340;2023-05-10T08:15:04;9.87;69.83
74540;SHT31;66042;51.090;-115.340;2023-05-10T08:17:32;9.85;69.75
74540;SHT31;66042;51.090;-115.340;2023-05-10T08:19:59;9.81;69.66
74540;SHT31;66042;51.090;-115.340;2023-05-10T08:22:26;9.74;69.62
74540;SHT31;66042;51.090;-115.340;2023-05-10T08:24:53;9.71;69.67
74540;SHT31;66042;51.090;-115.340;2023-05-10T08:27:20;9.65;69.76
74540;SHT31;66042;51.090;-115.340;2023-05-10T08:29:50;9.60;69.83
74540;SHT31;66042;51.090;-115.340;2023-05-10T08:32:17;9.58;69.88
74540;SHT31;66042;51.090;-115.340;2023-05-10T08:34:46;9.57;69.90
74540;SHT31;66042;51.090;-115.340;2023-05-10T08:37:13;9.57;69.94
74540;SHT31;66042;51.090;-115.340;2023-05-10T08:39:40;9.58;69.96
74540;SHT31;66042;51.090;-115.340;2023-05-10T08:42:07;9.58;69.99
74540;SHT31;66042;51.090;-115.340;2023-05-10T08:44:36;9.59;70.03
74540;SHT31;66042;51.090;-115.340;2023-05-10T08:47:06;9.59;70.04
74540;SHT31;66042;51.090;-115.340;2023-05-10T08:49:35;9.58;70.11
74540;SHT31;66042;51.090;-115.340;2023-05-10T08:52:04;9.56;70.21
74540;SHT31;66042;51.090;-115.340;2023-05-10T08:54:33;9.56;70.20
74540;SHT31;66042;51.090;-115.340;2023-05-10T08:57:01;9.55;70.04
74540;SHT31;66042;51.090;-115.340;2023-05-10T08:59:28;9.55;70.05
74540;SHT31;66042;51.090;-115.340;2023-05-10T09:01:59;9.54;70.03
74540;SHT31;66042;51.090;-115.340;2023-05-10T09:04:27;9.53;70.00
74540;SHT31;66042;51.090;-115.340;2023-05-10T09:06:55;9.51;70.06
74540;SHT31;66042;51.090;-115.340;2023-05-10T09:09:22;9.47;70.08
74540;SHT31;66042;51.090;-115.340;2023-05-10T09:11:51;9.47;70.25
74540;SHT31;66042;51.090;-115.340;2023-05-10T09:14:19;9.49;70.23
74540;SHT31;66042;51.090;-115.340;2023-05-10T09:16:47;9.50;70.17
74540;SHT31;66042;51.090;-115.340;2023-05-10T09:19:14;9.51;70.09
74540;SHT31;66042;51.090;-115.340;2023-05-10T09:21:41;9.52;70.05
74540;SHT31;66042;51.090;-115.340;2023-05-10T09:24:08;9.48;70.03
74540;SHT31;66042;51.090;-115.340;2023-05-10T09:26:35;9.46;70.16
74540;SHT31;66042;51.090;-115.340;2023-05-10T09:29:16;9.46;70.02
74540;SHT31;66042;51.090;-115.340;2023-05-10T09:31:43;9.42;70.04
74540;SHT31;66042;51.090;-115.340;2023-05-10T09:34:30;9.39;70.13
74540;SHT31;66042;51.090;-115.340;2023-05-10T09:37:00;9.38;70.01
74540;SHT31;66042;51.090;-115.340;2023-05-10T09:39:30;9.36;69.91
74540;SHT31;66042;51.090;-115.340;2023-05-10T09:42:02;9.33;69.90
74540;SHT31;66042;51.090;-115.340;2023-05-10T09:44:33;9.35;69.81
74540;SHT31;66042;51.090;-115.340;2023-05-10T09:47:02;9.37;69.81
74540;SHT31;66042;51.090;-115.340;2023-05-10T09:49:29;9.34;69.85
74540;SHT31;66042;51.090;-115.340;2023-05-10T09:52:00;9.31;69.88
74540;SHT31;66042;51.090;-115.340;2023-05-10T09:54:30;9.31;69.92
74540;SHT31;66042;51.090;-115.340;2023-05-10T09:56:59;9.28;69.69
74540;SHT31;66042;51.090;-115.340;2023-05-10T09:59:27;9.27;69.57
74540;SHT31;66042;51.090;-115.340;2023-05-10T10:01:56;9.26;69.31
74540;SHT31;66042;51.090;-115.340;2023-05-10T10:04:25;9.22;69.48
74540;SHT31;66042;51.090;-115.340;2023-05-10T10:07:02;9.18;69.62
74540;SHT31;66042;51.090;-115.340;2023-05-10T10:09:31;9.17;69.77
74540;SHT31;66042;51.090;-115.340;2023-05-10T10:12:02;9.15;69.74
74540;SHT31;66042;51.090;-115.340;2023-05-10T10:14:29;9.16;69.79
74540;SHT31;66042;51.090;-115.340;2023-05-10T10:16:57;9.16;69.76
74540;SHT31;66042;51.090;-115.340;2023-05-10T10:19:27;9.16;69.75
74540;SHT31;66042;51.090;-115.340;2023-05-10T10:21:56;9.17;69.79
74540;SHT31;66042;51.090;-115.340;2023-05-10T10:24:24;9.17;69.74
74540;SHT31;66042;51.090;-115.340;2023-05-10T10:26:52;9.16;69.61
74540;SHT31;66042;51.090;-115.340;2023-05-10T10:32:31;9.07;69.49
74540;SHT31;66042;51.090;-115.340;2023-05-10T10:35:19;9.01;69.63
74540;SHT31;66042;51.090;-115.340;2023-05-10T10:37:47;8.96;69.83
74540;SHT31;66042;51.090;-115.340;2023-05-10T10:40:34;8.97;69.98
74540;SHT31;66042;51.090;-115.340;2023-05-10T10:46:11;8.87;70.09
74540;SHT31;66042;51.090;-115.340;2023-05-10T10:48:41;8.89;70.21
74540;SHT31;66042;51.090;-115.340;2023-05-10T10:51:14;8.91;70.15
74540;SHT31;66042;51.090;-115.340;2023-05-10T10:53:41;8.91;70.19
74540;SHT31;66042;51.090;-115.340;2023-05-10T10:56:12;8.93;70.13
74540;SHT31;66042;51.090;-115.340;2023-05-10T10:58:40;8.93;70.21
74540;SHT31;66042;51.090;-115.340;2023-05-10T11:01:19;8.93;70.31
74540;SHT31;66042;51.090;-115.340;2023-05-10T11:06:32;8.85;70.42
74540;SHT31;66042;51.090;-115.340;2023-05-10T11:09:08;8.82;70.56
74540;SHT31;66042;51.090;-115.340;2023-05-10T11:11:48;8.79;70.56
74540;SHT31;66042;51.090;-115.340;2023-05-10T11:14:24;8.77;70.51
74540;SHT31;66042;51.090;-115.340;2023-05-10T11:16:52;8.78;70.66
74540;SHT31;66042;51.090;-115.340;2023-05-10T11:19:19;8.79;70.60
74540;SHT31;66042;51.090;-115.340;2023-05-10T11:24:31;8.82;70.74
74540;SHT31;66042;51.090;-115.340;2023-05-10T11:27:00;8.83;70.70
74540;SHT31;66042;51.090;-115.340;2023-05-10T11:29:29;8.84;70.70
74540;SHT31;66042;51.090;-115.340;2023-05-10T11:31:57;8.84;70.70
74540;SHT31;66042;51.090;-115.340;2023-05-10T11:34:25;8.83;70.71
74540;SHT31;66042;51.090;-115.340;2023-05-10T11:36:59;8.81;70.79
74540;SHT31;66042;51.090;-115.340;2023-05-10T11:39:30;8.77;70.80
74540;SHT31;66042;51.090;-115.340;2023-05-10T11:41:58;8.76;70.80
74540;SHT31;66042;51.090;-115.340;2023-05-10T11:44:29;8.73;70.80
74540;SHT31;66042;51.090;-115.340;2023-05-10T11:47:00;8.69;70.85
74540;SHT31;66042;51.090;-115.340;2023-05-10T11:49:28;8.67;70.99
74540;SHT31;66042;51.090;-115.340;2023-05-10T11:52:05;8.69;71.00
74540;SHT31;66042;51.090;-115.340;2023-05-10T11:54:33;8.69;70.98
74540;SHT31;66042;51.090;-115.340;2023-05-10T11:57:00;8.71;71.03
74540;SHT31;66042;51.090;-115.340;2023-05-10T11:59:28;8.72;71.10
74540;SHT31;66042;51.090;-115.340;2023-05-10T12:01:55;8.73;71.15
74540;SHT31;66042;51.090;-115.340;2023-05-10T12:04:23;8.75;71.20
74540;SHT31;66042;51.090;-115.340;2023-05-10T12:06:51;8.76;71.21
74540;SHT31;66042;51.090;-115.340;2023-05-10T12:09:18;8.77;71.20
74540;SHT31;66042;51.090;-115.340;2023-05-10T12:11:45;8.75;71.26
74540;SHT31;66042;51.090;-115.340;2023-05-10T12:14:12;8.75;71.31
74540;SHT31;66042;51.090;-115.340;2023-05-10T12:16:40;8.73;71.29
74540;SHT31;66042;51.090;-115.340;2023-05-10T12:19:09;8.68;71.30
74540;SHT31;66042;51.090;-115.340;2023-05-10T12:21:36;8.65;71.39
74540;SHT31;66042;51.090;-115.340;2023-05-10T12:24:04;8.63;71.50
74540;SHT31;66042;51.090;-115.340;2023-05-10T12:26:31;8.61;71.49
74540;SHT31;66042;51.090;-115.340;2023-05-10T12:29:16;8.59;71.40
74540;SHT31;66042;51.090;-115.340;2023-05-10T12:31:54;8.56;71.44
74540;SHT31;66042;51.090;-115.340;2023-05-10T12:34:30;8.57;71.54
74540;SHT31;66042;51.090;-115.340;2023-05-10T12:37:03;8.59;71.69
74540;SHT31;66042;51.090;-115.340;2023-05-10T12:39:40;8.59;71.75
74540;SHT31;66042;51.090;-115.340;2023-05-10T12:42:09;8.61;71.80
74540;SHT31;66042;51.090;-115.340;2023-05-10T12:44:36;8.63;71.80
74540;SHT31;66042;51.090;-115.340;2023-05-10T12:47:04;8.61;71.80
74540;SHT31;66042;51.090;-115.340;2023-05-10T12:49:31;8.60;71.89
74540;SHT31;66042;51.090;-115.340;2023-05-10T12:51:58;8.62;71.90
74540;SHT31;66042;51.090;-115.340;2023-05-10T12:54:25;8.61;71.90
74540;SHT31;66042;51.090;-115.340;2023-05-10T12:56:53;8.60;71.90
74540;SHT31;66042;51.090;-115.340;2023-05-10T12:59:20;8.60;71.73
74540;SHT31;66042;51.090;-115.340;2023-05-10T13:01:48;8.61;71.83
74540;SHT31;66042;51.090;-115.340;2023-05-10T13:04:14;8.65;71.94
74540;SHT31;66042;51.090;-115.340;2023-05-10T13:06:41;8.67;72.00
74540;SHT31;66042;51.090;-115.340;2023-05-10T13:09:08;8.69;71.92
74540;SHT31;66042;51.090;-115.340;2023-05-10T13:11:35;8.69;71.90
74540;SHT31;66042;51.090;-115.340;2023-05-10T13:14:03;8.69;71.88
74540;SHT31;66042;51.090;-115.340;2023-05-10T13:16:29;8.69;71.83
74540;SHT31;66042;51.090;-115.340;2023-05-10T13:18:57;8.68;71.82
74540;SHT31;66042;51.090;-115.340;2023-05-10T13:21:24;8.69;71.93
74540;SHT31;66042;51.090;-115.340;2023-05-10T13:23:52;8.71;72.00
74540;SHT31;66042;51.090;-115.340;2023-05-10T13:26:19;8.74;72.00
74540;SHT31;66042;51.090;-115.340;2023-05-10T13:28:46;8.78;72.00
74540;SHT31;66042;51.090;-115.340;2023-05-10T13:31:14;8.82;72.00
74540;SHT31;66042;51.090;-115.340;2023-05-10T13:33:41;8.86;72.05
74540;SHT31;66042;51.090;-115.340;2023-05-10T13:36:07;8.89;72.09
74540;SHT31;66042;51.090;-115.340;2023-05-10T13:38:34;8.90;72.10
74540;SHT31;66042;51.090;-115.340;2023-05-10T13:41:01;8.94;72.08
74540;SHT31;66042;51.090;-115.340;2023-05-10T13:43:29;8.94;72.00
74540;SHT31;66042;51.090;-115.340;2023-05-10T13:45:57;8.99;71.94
74540;SHT31;66042;51.090;-115.340;2023-05-10T13:48:24;8.99;71.87
74540;SHT31;66042;51.090;-115.340;2023-05-10T13:50:52;8.99;71.89
74540;SHT31;66042;51.090;-115.340;2023-05-10T13:53:18;9.01;71.93
74540;SHT31;66042;51.090;-115.340;2023-05-10T13:55:46;9.05;71.95
74540;SHT31;66042;51.090;-115.340;2023-05-10T13:58:13;9.04;71.95
74540;SHT31;66042;51.090;-115.340;2023-05-10T14:00:40;8.91;72.08
74540;SHT31;66042;51.090;-115.340;2023-05-10T14:03:07;8.86;72.36
74540;SHT31;66042;51.090;-115.340;2023-05-10T14:05:36;8.90;72.48
74540;SHT31;66042;51.090;-115.340;2023-05-10T14:08:03;8.89;72.76
74540;SHT31;66042;51.090;-115.340;2023-05-10T14:10:30;8.80;73.07
74540;SHT31;66042;51.090;-115.340;2023-05-10T14:12:57;8.84;73.05
74540;SHT31;66042;51.090;-115.340;2023-05-10T14:15:24;8.87;72.83
74540;SHT31;66042;51.090;-115.340;2023-05-10T14:17:51;8.93;72.74
74540;SHT31;66042;51.090;-115.340;2023-05-10T14:20:17;8.98;72.66
74540;SHT31;66042;51.090;-115.340;2023-05-10T14:22:44;9.06;72.34
74540;SHT31;66042;51.090;-115.340;2023-05-10T14:25:11;9.12;72.28
74540;SHT31;66042;51.090;-115.340;2023-05-10T14:27:39;9.15;71.95
74540;SHT31;66042;51.090;-115.340;2023-05-10T14:30:07;9.24;71.62
74540;SHT31;66042;51.090;-115.340;2023-05-10T14:32:34;9.28;71.72
74540;SHT31;66042;51.090;-115.340;2023-05-10T14:35:02;9.19;71.86
74540;SHT31;66042;51.090;-115.340;2023-05-10T14:37:29;9.22;71.82
74540;SHT31;66042;51.090;-115.340;2023-05-10T14:39:56;9.26;71.87
74540;SHT31;66042;51.090;-115.340;2023-05-10T14:42:22;9.29;71.78
74540;SHT31;66042;51.090;-115.340;2023-05-10T14:44:49;9.36;71.59
74540;SHT31;66042;51.090;-115.340;2023-05-10T14:47:16;9.43;71.48
74540;SHT31;66042;51.090;-115.340;2023-05-10T14:49:43;9.45;71.45
74540;SHT31;66042;51.090;-115.340;2023-05-10T14:52:10;9.48;71.29
74540;SHT31;66042;51.090;-115.340;2023-05-10T14:54:37;9.48;71.14
74540;SHT31;66042;51.090;-115.340;2023-05-10T14:57:04;9.55;70.79
74540;SHT31;66042;51.090;-115.340;2023-05-10T14:59:31;9.59;70.95
74540;SHT31;66042;51.090;-115.340;2023-05-10T15:01:58;9.65;71.13
74540;SHT31;66042;51.090;-115.340;2023-05-10T15:04:25;9.70;71.13
74540;SHT31;66042;51.090;-115.340;2023-05-10T15:06:52;9.75;70.87
74540;SHT31;66042;51.090;-115.340;2023-05-10T15:09:24;9.78;70.92
74540;SHT31;66042;51.090;-115.340;2023-05-10T15:11:53;9.83;70.91
74540;SHT31;66042;51.090;-115.340;2023-05-10T15:14:21;9.87;71.04
74540;SHT31;66042;51.090;-115.340;2023-05-10T15:16:48;9.88;71.25
74540;SHT31;66042;51.090;-115.340;2023-05-10T15:19:15;9.91;71.10
74540;SHT31;66042;51.090;-115.340;2023-05-10T15:21:43;9.93;71.36
74540;SHT31;66042;51.090;-115.340;2023-05-10T15:24:10;9.94;71.20
74540;SHT31;66042;51.090;-115.340;2023-05-10T15:26:37;9.93;71.37
74540;SHT31;66042;51.090;-115.340;2023-05-10T15:29:04;9.97;71.41
74540;SHT31;66042;51.090;-115.340;2023-05-10T15:31:31;10.03;71.37
74540;SHT31;66042;51.090;-115.340;2023-05-10T15:34:01;10.12;71.26